Arklow Mill — EIJD9 — position and weather

sailwx.info

Track history (hours):
 
Tides and Currents Weather Stations Pressure Air Temp Water Temp Dewpoint Dewpoint Depression Visibility Wind Speed Wind Dir Waves Ship Positions

Arklow Mill

Last reported at 2017-Aug-16 20:01 UTC. Time now 2017-Aug-16 21:49 UTC.
Position N 51°40' W 010°38'.

Length 137 m; draft 8.4 m.

Type: Ship. MMSI: 250002022.

Date/timePositionNaut miles runAvg speedWind from/ knotsBaromVisibWave heightAir tempDewpointWater temp
2017-Aug-16 20:01N 51°40' W 010°38'412.8
2017-Aug-16 19:41N 51°37' W 010°34'212.5
2017-Aug-16 19:30N 51°35' W 010°31'612.7
2017-Aug-16 19:00N 51°31' W 010°24'612.7
2017-Aug-16 18:30N 51°27' W 010°16'612.7
2017-Aug-16 18:01N 51°24' W 010°07'713.2
2017-Aug-16 17:30N 51°21' W 009°58'713.1
2017-Aug-16 17:01N 51°18' W 009°49'612.7
2017-Aug-16 16:30N 51°14' W 009°40'612.8
2017-Aug-16 16:00N 51°12' W 009°30'612.8
2017-Aug-16 15:31N 51°09' W 009°21'612.3
2017-Aug-16 15:01N 51°07' W 009°12'611.9
2017-Aug-16 14:30N 51°05' W 009°03'2411.3
2017-Aug-16 12:22N 50°57' W 008°27'8911.9
2017-Aug-16 04:53N 50°25' W 006°16'512.6
2017-Aug-16 04:30N 50°23' W 006°09'612.6
2017-Aug-16 04:00N 50°21' W 005°59'5 9.3
2017-Aug-16 03:30N 50°18' W 005°55'612.4
2017-Aug-16 03:00N 50°12' W 005°54'612.3
2017-Aug-16 02:30N 50°05' W 005°53'710.5
2017-Aug-16 01:50N 49°59' W 005°49'412.6
2017-Aug-16 01:29N 49°59' W 005°42'612.7
2017-Aug-16 01:00N 49°58' W 005°33'712.8
2017-Aug-16 00:29N 49°57' W 005°23'712.3
2017-Aug-15 23:57N 49°56' W 005°13'511.6
2017-Aug-15 23:30N 49°59' W 005°06'612.0
2017-Aug-15 22:59N 50°04' W 005°01'2 3.5
2017-Aug-15 22:25N 50°06' W 005°02'0 0.0
2017-Aug-15 21:58N 50°06' W 005°02'0 0.0
2017-Aug-15 21:25N 50°06' W 005°02'0 0.0
2017-Aug-15 20:58N 50°06' W 005°02'0 0.0
2017-Aug-15 20:25N 50°06' W 005°02'0 0.0
2017-Aug-15 20:01N 50°06' W 005°02'0 0.0
2017-Aug-15 19:31N 50°06' W 005°02'0 0.1
2017-Aug-15 19:01N 50°06' W 005°02'1 1.8
2017-Aug-15 18:30N 50°06' W 005°01'510.8
2017-Aug-15 18:00N 50°05' W 004°52'612.9
2017-Aug-15 17:30N 50°06' W 004°42'612.7
2017-Aug-15 17:00N 50°06' W 004°32'612.7
2017-Aug-15 16:30N 50°07' W 004°22'612.5
2017-Aug-15 16:00N 50°07' W 004°13'612.5
2017-Aug-15 15:30N 50°08' W 004°03'612.5
2017-Aug-15 15:00N 50°08' W 003°53'611.9
2017-Aug-15 14:30N 50°08' W 003°44'611.6
2017-Aug-15 14:00N 50°09' W 003°35'611.5
2017-Aug-15 13:30N 50°10' W 003°26'611.5
2017-Aug-15 13:00N 50°11' W 003°17'611.4
2017-Aug-15 12:30N 50°12' W 003°09'611.3
2017-Aug-15 12:00N 50°13' W 002°60'611.4
2017-Aug-15 11:30N 50°14' W 002°51'611.6
2017-Aug-15 11:00N 50°15' W 002°42'4913.5
2017-Aug-15 07:21N 50°23' W 001°26'515.2
2017-Aug-15 07:00N 50°24' W 001°18'816.0
2017-Aug-15 06:30N 50°25' W 001°05'815.6
2017-Aug-15 06:00N 50°26' W 000°53'714.7
2017-Aug-15 05:30N 50°28' W 000°42'713.6
2017-Aug-15 05:00N 50°29' W 000°32'713.3
2017-Aug-15 04:31N 50°30' W 000°21'712.9
2017-Aug-15 04:00N 50°31' W 000°11'612.3
2017-Aug-15 03:30N 50°32' W 000°02'611.7
2017-Aug-15 03:01N 50°33' E 000°07'611.5
2017-Aug-15 02:30N 50°34' E 000°16'511.1
2017-Aug-15 02:00N 50°36' E 000°25'611.1
2017-Aug-15 01:31N 50°37' E 000°33'611.3
2017-Aug-15 01:01N 50°39' E 000°41'612.4
2017-Aug-15 00:31N 50°43' E 000°49'713.2
2017-Aug-15 00:00N 50°47' E 000°58'714.0
2017-Aug-14 23:31N 50°51' E 001°07'714.6
2017-Aug-14 23:00N 50°54' E 001°17'815.1
2017-Aug-14 22:31N 50°60' E 001°25'714.6
2017-Aug-14 22:01N 51°05' E 001°34'611.4
2017-Aug-14 21:31N 51°05' E 001°43'713.1
2017-Aug-14 21:00N 51°03' E 001°53'510.7
2017-Aug-14 20:31N 51°03' E 002°01'611.7
2017-Aug-14 20:00N 51°01' E 002°10'1 2.3
2017-Aug-14 19:30N 51°00' E 002°11'0 0.0
2017-Aug-14 19:00N 51°00' E 002°11'0 0.0
2017-Aug-14 18:30N 51°00' E 002°11'0 0.0
2017-Aug-14 18:00N 51°00' E 002°11'0 0.0
2017-Aug-14 17:30N 51°00' E 002°11'0 0.0
2017-Aug-14 17:00N 51°00' E 002°11'0 0.0
2017-Aug-14 16:30N 51°00' E 002°11'0 0.0
2017-Aug-14 16:00N 51°00' E 002°11'0 0.0
2017-Aug-14 15:30N 51°00' E 002°11'0 0.0
2017-Aug-14 15:00N 51°00' E 002°11'0 0.0
2017-Aug-14 14:30N 51°00' E 002°11'0 0.0
2017-Aug-14 14:00N 51°00' E 002°11'0 0.0
2017-Aug-14 13:30N 51°00' E 002°11'0 0.0
2017-Aug-14 13:00N 51°00' E 002°11'0 0.0
2017-Aug-14 12:27N 51°00' E 002°11'0 0.0
2017-Aug-14 11:54N 51°00' E 002°11'0 0.0
2017-Aug-14 11:30N 51°00' E 002°11'0 0.0
2017-Aug-14 11:00N 51°00' E 002°11'0 0.0
2017-Aug-14 10:30N 51°00' E 002°11'0 0.0
2017-Aug-14 09:57N 51°00' E 002°11'0 0.0
2017-Aug-14 09:30N 51°00' E 002°11'0 0.0
2017-Aug-14 08:57N 51°00' E 002°11'0 0.0
2017-Aug-14 08:24N 51°00' E 002°11'0 0.0
2017-Aug-14 07:57N 51°00' E 002°11'0 0.0
2017-Aug-14 07:30N 51°00' E 002°11'0 0.0
2017-Aug-14 06:57N 51°00' E 002°11'0 0.0
2017-Aug-14 06:21N 51°00' E 002°11'0 0.0
2017-Aug-14 06:00N 51°00' E 002°11'0 0.0
2017-Aug-14 05:27N 51°00' E 002°11'0 0.0
2017-Aug-14 04:51N 51°00' E 002°11'0 0.0
2017-Aug-14 04:24N 51°00' E 002°11'0 0.0
2017-Aug-14 04:00N 51°00' E 002°11'0 0.0
2017-Aug-14 03:30N 51°00' E 002°11'0 0.0
2017-Aug-14 03:00N 51°00' E 002°11'0 0.0
2017-Aug-14 02:30N 51°00' E 002°11'0 0.0
2017-Aug-14 02:00N 51°00' E 002°11'0 0.0
2017-Aug-14 01:30N 51°00' E 002°11'0 0.0
2017-Aug-14 01:00N 51°00' E 002°11'0 0.0
2017-Aug-14 00:30N 51°00' E 002°11'0 0.0
2017-Aug-14 00:00N 51°00' E 002°11'0 0.0
2017-Aug-13 23:27N 51°00' E 002°11'0 0.0
2017-Aug-13 22:57N 51°00' E 002°11'0 0.0
2017-Aug-13 22:30N 51°00' E 002°11'0 0.0
2017-Aug-13 21:51N 51°00' E 002°11'0 0.0
2017-Aug-13 21:18N 51°00' E 002°11'0 0.0
2017-Aug-13 21:00N 51°00' E 002°11'0 0.0
2017-Aug-13 20:30N 51°00' E 002°11'0 0.0
2017-Aug-13 19:48N 51°00' E 002°11'0 0.0
2017-Aug-13 19:27N 51°00' E 002°11'0 0.0
2017-Aug-13 19:00N 51°00' E 002°11'0 0.0
2017-Aug-13 18:27N 51°00' E 002°11'0 0.0
2017-Aug-13 17:57N 51°00' E 002°11'0 0.0
2017-Aug-13 17:09N 51°00' E 002°11'0 0.0
2017-Aug-13 16:51N 51°00' E 002°11'0 0.0
2017-Aug-13 16:21N 51°00' E 002°11'0 0.0
2017-Aug-13 16:00N 51°00' E 002°11'0 0.0
2017-Aug-13 15:30N 51°00' E 002°11'0 0.0
2017-Aug-13 14:57N 51°00' E 002°11'0 0.0
2017-Aug-13 14:30N 51°00' E 002°11'0 0.0
2017-Aug-13 14:00N 51°00' E 002°11'0 0.0
2017-Aug-13 13:30N 51°00' E 002°11'0 0.0
2017-Aug-13 13:00N 51°00' E 002°11'0 0.0
2017-Aug-13 12:30N 51°00' E 002°11'0 0.0
2017-Aug-13 11:48N 51°00' E 002°11'0 0.0
2017-Aug-13 11:27N 51°00' E 002°11'0 0.0
2017-Aug-13 10:48N 51°00' E 002°11'0 0.0
2017-Aug-13 10:27N 51°00' E 002°11'0 0.0
2017-Aug-13 09:51N 51°00' E 002°11'0 0.0
2017-Aug-13 08:21N 51°00' E 002°11'0 0.0
2017-Aug-13 07:42N 51°00' E 002°11'0 0.0
2017-Aug-13 07:27N 51°00' E 002°11'0 0.0
2017-Aug-13 06:57N 51°00' E 002°11'0 0.0
2017-Aug-13 06:27N 51°00' E 002°11'0 0.0
2017-Aug-13 05:51N 51°00' E 002°11'0 0.0
2017-Aug-13 05:30N 51°00' E 002°11'0 0.0
2017-Aug-13 05:00N 51°00' E 002°11'0 0.0
2017-Aug-13 04:30N 51°00' E 002°11'0 0.0
2017-Aug-13 04:00N 51°00' E 002°11'0 0.0
2017-Aug-13 03:27N 51°00' E 002°11'0 0.0
2017-Aug-13 03:00N 51°00' E 002°11'0 0.0
2017-Aug-13 02:27N 51°00' E 002°11'0 0.0
2017-Aug-13 02:00N 51°00' E 002°11'0 0.0
2017-Aug-13 01:30N 51°00' E 002°11'0 0.0
2017-Aug-13 00:57N 51°00' E 002°11'0 0.0
2017-Aug-13 00:30N 51°00' E 002°11'0 0.0
2017-Aug-13 00:00N 51°00' E 002°11'0 0.0
2017-Aug-12 23:30N 51°00' E 002°11'0 0.0
2017-Aug-12 23:00N 51°00' E 002°11'0 0.0
2017-Aug-12 22:27N 51°00' E 002°11'0 0.0
2017-Aug-12 22:00N 51°00' E 002°11'0 0.0
2017-Aug-12 21:30N 51°00' E 002°11'0 0.0
2017-Aug-12 21:00N 51°00' E 002°11'0 0.0
2017-Aug-12 20:27N 51°00' E 002°11'0 0.0
2017-Aug-12 20:00N 51°00' E 002°11'0 0.0
2017-Aug-12 19:24N 51°00' E 002°11'0 0.0
2017-Aug-12 19:00N 51°00' E 002°11'0 0.0
2017-Aug-12 18:21N 51°00' E 002°11'0 0.0
2017-Aug-12 17:54N 51°00' E 002°11'0 0.0
2017-Aug-12 17:30N 51°00' E 002°11'0 0.0
2017-Aug-12 16:57N 51°00' E 002°11'0 0.0
2017-Aug-12 16:30N 51°00' E 002°11'0 0.0
2017-Aug-12 16:00N 51°00' E 002°11'0 0.0
2017-Aug-12 15:24N 51°00' E 002°11'0 0.0
2017-Aug-12 15:00N 51°00' E 002°11'0 0.0
2017-Aug-12 14:30N 51°00' E 002°11'0 0.0
2017-Aug-12 14:00N 51°00' E 002°11'0 0.0
2017-Aug-12 13:30N 51°00' E 002°11'0 0.0
2017-Aug-12 13:00N 51°00' E 002°11'0 0.0
2017-Aug-12 12:30N 51°00' E 002°11'0 0.0
2017-Aug-12 11:54N 51°00' E 002°11'0 0.0
2017-Aug-12 11:30N 51°00' E 002°11'0 0.0
2017-Aug-12 10:57N 51°00' E 002°11'0 0.0
2017-Aug-12 10:30N 51°00' E 002°11'0 0.0
2017-Aug-12 09:57N 51°00' E 002°11'0 0.0
2017-Aug-12 09:24N 51°00' E 002°11'0 0.0
2017-Aug-12 08:57N 51°00' E 002°11'0 0.0
2017-Aug-12 08:30N 51°00' E 002°11'0 0.0
2017-Aug-12 08:00N 51°00' E 002°11'0 0.0
2017-Aug-12 07:30N 51°00' E 002°11'0 0.0
2017-Aug-12 07:00N 51°00' E 002°11'0 0.0
2017-Aug-12 06:21N 51°00' E 002°11'0 0.0
2017-Aug-12 05:54N 51°00' E 002°11'0 0.0
2017-Aug-12 05:30N 51°00' E 002°11'0 0.0
2017-Aug-12 05:00N 51°00' E 002°11'0 0.0
2017-Aug-12 04:30N 51°00' E 002°11'0 0.0
2017-Aug-12 04:00N 51°00' E 002°11'0 0.0
2017-Aug-12 03:30N 51°00' E 002°11'0 0.0
2017-Aug-12 03:00N 51°00' E 002°11'0 0.0
2017-Aug-12 02:30N 51°00' E 002°11'0 0.0
2017-Aug-12 02:00N 51°00' E 002°11'0 0.0
2017-Aug-12 01:30N 51°00' E 002°11'0 0.0
2017-Aug-12 00:54N 51°00' E 002°11'0 0.0
2017-Aug-12 00:24N 51°00' E 002°11'0 0.0
2017-Aug-11 23:57N 51°00' E 002°11'0 0.0
2017-Aug-11 23:18N 51°00' E 002°11'0 0.0
2017-Aug-11 23:00N 51°00' E 002°11'0 0.0
2017-Aug-11 22:30N 51°00' E 002°11'0 0.0
2017-Aug-11 22:00N 51°00' E 002°11'0 0.0
2017-Aug-11 21:27N 51°00' E 002°11'0 0.0
2017-Aug-11 20:21N 51°00' E 002°11'0 0.0
2017-Aug-11 19:57N 51°00' E 002°11'0 0.0
2017-Aug-11 19:27N 51°00' E 002°11'0 0.0
2017-Aug-11 18:57N 51°00' E 002°11'0 0.0
2017-Aug-11 18:27N 51°00' E 002°11'0 0.0
2017-Aug-11 17:57N 51°00' E 002°11'0 0.0
2017-Aug-11 17:09N 51°00' E 002°11'0 0.0
2017-Aug-11 16:55N 51°00' E 002°11'0 0.0
2017-Aug-11 16:27N 51°00' E 002°11'0 0.0
2017-Aug-11 16:00N 51°00' E 002°11'0 0.0
2017-Aug-11 15:30N 51°00' E 002°11'0 0.0
2017-Aug-11 15:00N 51°00' E 002°11'0 0.0
2017-Aug-11 14:30N 51°00' E 002°11'0 0.0
2017-Aug-11 13:30N 51°00' E 002°11'0 0.0
2017-Aug-11 13:00N 51°00' E 002°11'0 0.0
2017-Aug-11 12:27N 51°00' E 002°11'0 0.0
2017-Aug-11 11:55N 51°00' E 002°11'0 0.0
2017-Aug-11 11:27N 51°00' E 002°11'0 0.0
2017-Aug-11 10:57N 51°00' E 002°11'0 0.0
2017-Aug-11 10:27N 51°00' E 002°11'0 0.0
2017-Aug-11 09:57N 51°00' E 002°11'0 0.0
2017-Aug-11 09:30N 51°00' E 002°11'0 0.0
2017-Aug-11 09:00N 51°00' E 002°11'0 0.0
2017-Aug-11 07:42N 51°00' E 002°11'0 0.0
2017-Aug-11 07:21N 51°00' E 002°11'0 0.0
2017-Aug-11 06:45N 51°00' E 002°11'0 0.0
2017-Aug-11 06:24N 51°00' E 002°11'0 0.0
2017-Aug-11 04:48N 51°00' E 002°11'0 0.0
2017-Aug-11 04:21N 51°00' E 002°11'0 0.0
2017-Aug-11 03:54N 51°00' E 002°11'0 0.0
2017-Aug-11 03:27N 51°00' E 002°11'0 0.0
2017-Aug-11 02:57N 51°00' E 002°11'0 0.0
2017-Aug-11 02:30N 51°00' E 002°11'0 0.0
2017-Aug-11 02:00N 51°00' E 002°11'0 0.0
2017-Aug-11 01:18N 51°00' E 002°11'0 0.0
2017-Aug-11 01:00N 51°00' E 002°11'0 0.0
2017-Aug-11 00:30N 51°00' E 002°11'0 0.0
2017-Aug-10 23:54N 51°00' E 002°11'0 0.0
2017-Aug-10 23:30N 51°00' E 002°11'0 0.0
2017-Aug-10 23:00N 51°00' E 002°11'0 0.0
2017-Aug-10 22:30N 51°00' E 002°11'0 0.0
2017-Aug-10 22:00N 51°00' E 002°11'0 0.0
2017-Aug-10 21:24N 51°00' E 002°11'0 0.0
2017-Aug-10 21:00N 51°00' E 002°11'0 0.0
2017-Aug-10 20:30N 51°00' E 002°11'0 0.0
2017-Aug-10 19:51N 51°00' E 002°11'0 0.0
2017-Aug-10 19:30N 51°00' E 002°11'0 0.0
2017-Aug-10 18:57N 51°00' E 002°11'0 0.0
2017-Aug-10 18:30N 51°00' E 002°11'1 2.4
2017-Aug-10 17:57N 51°02' E 002°10'410.0
2017-Aug-10 17:30N 51°03' E 002°03'712.4
2017-Aug-10 16:56N 51°03' E 001°52'2 4.8
2017-Aug-10 16:30N 51°04' E 001°49'2 3.6
2017-Aug-10 15:59N 51°05' E 001°52'0 0.0
2017-Aug-10 15:29N 51°05' E 001°52'0 0.0
2017-Aug-10 14:56N 51°05' E 001°52'0 0.0
2017-Aug-10 14:29N 51°05' E 001°52'0 0.0
2017-Aug-10 13:56N 51°05' E 001°52'0 0.0
2017-Aug-10 13:29N 51°05' E 001°52'0 0.0
2017-Aug-10 12:59N 51°05' E 001°52'0 0.0
2017-Aug-10 12:29N 51°05' E 001°52'0 0.3
2017-Aug-10 11:50N 51°05' E 001°52'0 0.2
2017-Aug-10 11:29N 51°05' E 001°52'0 0.1
2017-Aug-10 10:59N 51°05' E 001°52'0 0.1
2017-Aug-10 10:29N 51°05' E 001°52'0 0.0
2017-Aug-10 09:59N 51°05' E 001°52'0 0.0
2017-Aug-10 09:29N 51°05' E 001°52'0 0.0
2017-Aug-10 08:59N 51°05' E 001°52'0 0.0
2017-Aug-10 08:29N 51°05' E 001°52'0 0.0
2017-Aug-10 07:59N 51°05' E 001°52'0 0.0
2017-Aug-10 07:26N 51°05' E 001°52'0 0.0
2017-Aug-10 06:56N 51°05' E 001°52'0 0.0
2017-Aug-10 06:26N 51°05' E 001°52'0 0.1
2017-Aug-10 05:59N 51°05' E 001°52'0 0.0
2017-Aug-10 05:29N 51°05' E 001°52'0 0.0
2017-Aug-10 04:59N 51°05' E 001°52'0 0.3
2017-Aug-10 04:26N 51°05' E 001°52'0 0.1
2017-Aug-10 03:59N 51°05' E 001°52'0 0.1
2017-Aug-10 03:29N 51°05' E 001°52'0 0.8
2017-Aug-10 03:01N 51°05' E 001°53'4 8.2
2017-Aug-10 02:30N 51°03' E 001°46'813.5
2017-Aug-10 01:54N 50°58' E 001°36'614.1
2017-Aug-10 01:30N 50°54' E 001°30'10010.6
2017-Aug-09 16:09N 50°09' W 000°49'1 8.2
2017-Aug-09 15:58N 50°08' W 000°51'4 8.1
2017-Aug-09 15:30N 50°07' W 000°57'4 7.8
2017-Aug-09 15:01N 50°06' W 001°03'4 7.2
2017-Aug-09 14:30N 50°05' W 001°08'4 8.0
2017-Aug-09 14:00N 50°04' W 001°14'4 8.5
2017-Aug-09 13:30N 50°03' W 001°21'4 8.9
2017-Aug-09 13:00N 50°02' W 001°27'5 9.7
2017-Aug-09 12:31N 50°01' W 001°35'510.6
2017-Aug-09 12:00N 49°60' W 001°43'611.3
2017-Aug-09 11:31N 49°59' W 001°51'612.4
2017-Aug-09 11:01N 49°58' W 002°01'612.7
2017-Aug-09 10:30N 49°57' W 002°11'3612.8
2017-Aug-09 07:39N 49°48' W 003°06'212.6
2017-Aug-09 07:30N 49°48' W 003°08'713.9
2017-Aug-09 07:01N 49°49' W 003°19'612.1
2017-Aug-09 06:30N 49°49' W 003°28'612.2
2017-Aug-09 06:00N 49°49' W 003°38'611.6
2017-Aug-09 05:30N 49°50' W 003°47'1611.5
2017-Aug-09 04:08N 49°50' W 004°11'511.0
2017-Aug-09 03:39N 49°50' W 004°19'19910.0
2017-Aug-08 07:37N 51°06' W 009°09'111.4
2017-Aug-08 07:30N 51°07' W 009°11'611.8
2017-Aug-08 07:00N 51°09' W 009°19'611.6
2017-Aug-08 06:31N 51°12' W 009°28'612.7
2017-Aug-08 06:00N 51°14' W 009°37'611.2
2017-Aug-08 05:30N 51°17' W 009°45'611.6
2017-Aug-08 05:00N 51°20' W 009°53'611.2
2017-Aug-08 04:30N 51°24' W 009°60'611.4
2017-Aug-08 04:01N 51°27' W 010°07'611.3
2017-Aug-08 03:30N 51°30' W 010°15'611.4
2017-Aug-08 03:00N 51°33' W 010°22'50 8.3
2017-Aug-07 21:00N 52°22' W 010°12'  
Track history (hours):
 
Tides and Currents Weather Stations Pressure Air Temp Water Temp Dewpoint Dewpoint Depression Visibility Wind Speed Wind Dir Waves Ship Positions

Arklow Mill

Last reported at 2017-Aug-16 20:01 UTC. Time now 2017-Aug-16 21:49 UTC.
Position N 51°40' W 010°38'.

Length 137 m; draft 8.4 m.

Type: Ship. MMSI: 250002022.

Date/timePositionNaut miles runAvg speedWind from/ knotsBaromVisibWave heightAir tempDewpointWater temp
2017-Aug-16 20:01N 51°40' W 010°38'412.8
2017-Aug-16 19:41N 51°37' W 010°34'212.5
2017-Aug-16 19:30N 51°35' W 010°31'612.7
2017-Aug-16 19:00N 51°31' W 010°24'612.7
2017-Aug-16 18:30N 51°27' W 010°16'612.7
2017-Aug-16 18:01N 51°24' W 010°07'713.2
2017-Aug-16 17:30N 51°21' W 009°58'713.1
2017-Aug-16 17:01N 51°18' W 009°49'612.7
2017-Aug-16 16:30N 51°14' W 009°40'612.8
2017-Aug-16 16:00N 51°12' W 009°30'612.8
2017-Aug-16 15:31N 51°09' W 009°21'612.3
2017-Aug-16 15:01N 51°07' W 009°12'611.9
2017-Aug-16 14:30N 51°05' W 009°03'2411.3
2017-Aug-16 12:22N 50°57' W 008°27'8911.9
2017-Aug-16 04:53N 50°25' W 006°16'512.6
2017-Aug-16 04:30N 50°23' W 006°09'612.6
2017-Aug-16 04:00N 50°21' W 005°59'5 9.3
2017-Aug-16 03:30N 50°18' W 005°55'612.4
2017-Aug-16 03:00N 50°12' W 005°54'612.3
2017-Aug-16 02:30N 50°05' W 005°53'710.5
2017-Aug-16 01:50N 49°59' W 005°49'412.6
2017-Aug-16 01:29N 49°59' W 005°42'612.7
2017-Aug-16 01:00N 49°58' W 005°33'712.8
2017-Aug-16 00:29N 49°57' W 005°23'712.3
2017-Aug-15 23:57N 49°56' W 005°13'511.6
2017-Aug-15 23:30N 49°59' W 005°06'612.0
2017-Aug-15 22:59N 50°04' W 005°01'2 3.5
2017-Aug-15 22:25N 50°06' W 005°02'0 0.0
2017-Aug-15 21:58N 50°06' W 005°02'0 0.0
2017-Aug-15 21:25N 50°06' W 005°02'0 0.0
2017-Aug-15 20:58N 50°06' W 005°02'0 0.0
2017-Aug-15 20:25N 50°06' W 005°02'0 0.0
2017-Aug-15 20:01N 50°06' W 005°02'0 0.0
2017-Aug-15 19:31N 50°06' W 005°02'0 0.1
2017-Aug-15 19:01N 50°06' W 005°02'1 1.8
2017-Aug-15 18:30N 50°06' W 005°01'510.8
2017-Aug-15 18:00N 50°05' W 004°52'612.9
2017-Aug-15 17:30N 50°06' W 004°42'612.7
2017-Aug-15 17:00N 50°06' W 004°32'612.7
2017-Aug-15 16:30N 50°07' W 004°22'612.5
2017-Aug-15 16:00N 50°07' W 004°13'612.5
2017-Aug-15 15:30N 50°08' W 004°03'612.5
2017-Aug-15 15:00N 50°08' W 003°53'611.9
2017-Aug-15 14:30N 50°08' W 003°44'611.6
2017-Aug-15 14:00N 50°09' W 003°35'611.5
2017-Aug-15 13:30N 50°10' W 003°26'611.5
2017-Aug-15 13:00N 50°11' W 003°17'611.4
2017-Aug-15 12:30N 50°12' W 003°09'611.3
2017-Aug-15 12:00N 50°13' W 002°60'611.4
2017-Aug-15 11:30N 50°14' W 002°51'611.6
2017-Aug-15 11:00N 50°15' W 002°42'4913.5
2017-Aug-15 07:21N 50°23' W 001°26'515.2
2017-Aug-15 07:00N 50°24' W 001°18'816.0
2017-Aug-15 06:30N 50°25' W 001°05'815.6
2017-Aug-15 06:00N 50°26' W 000°53'714.7
2017-Aug-15 05:30N 50°28' W 000°42'713.6
2017-Aug-15 05:00N 50°29' W 000°32'713.3
2017-Aug-15 04:31N 50°30' W 000°21'712.9
2017-Aug-15 04:00N 50°31' W 000°11'612.3
2017-Aug-15 03:30N 50°32' W 000°02'611.7
2017-Aug-15 03:01N 50°33' E 000°07'611.5
2017-Aug-15 02:30N 50°34' E 000°16'511.1
2017-Aug-15 02:00N 50°36' E 000°25'611.1
2017-Aug-15 01:31N 50°37' E 000°33'611.3
2017-Aug-15 01:01N 50°39' E 000°41'612.4
2017-Aug-15 00:31N 50°43' E 000°49'713.2
2017-Aug-15 00:00N 50°47' E 000°58'714.0
2017-Aug-14 23:31N 50°51' E 001°07'714.6
2017-Aug-14 23:00N 50°54' E 001°17'815.1
2017-Aug-14 22:31N 50°60' E 001°25'714.6
2017-Aug-14 22:01N 51°05' E 001°34'611.4
2017-Aug-14 21:31N 51°05' E 001°43'713.1
2017-Aug-14 21:00N 51°03' E 001°53'510.7
2017-Aug-14 20:31N 51°03' E 002°01'611.7
2017-Aug-14 20:00N 51°01' E 002°10'1 2.3
2017-Aug-14 19:30N 51°00' E 002°11'0 0.0
2017-Aug-14 19:00N 51°00' E 002°11'0 0.0
2017-Aug-14 18:30N 51°00' E 002°11'0 0.0
2017-Aug-14 18:00N 51°00' E 002°11'0 0.0
2017-Aug-14 17:30N 51°00' E 002°11'0 0.0
2017-Aug-14 17:00N 51°00' E 002°11'0 0.0
2017-Aug-14 16:30N 51°00' E 002°11'0 0.0
2017-Aug-14 16:00N 51°00' E 002°11'0 0.0
2017-Aug-14 15:30N 51°00' E 002°11'0 0.0
2017-Aug-14 15:00N 51°00' E 002°11'0 0.0
2017-Aug-14 14:30N 51°00' E 002°11'0 0.0
2017-Aug-14 14:00N 51°00' E 002°11'0 0.0
2017-Aug-14 13:30N 51°00' E 002°11'0 0.0
2017-Aug-14 13:00N 51°00' E 002°11'0 0.0
2017-Aug-14 12:27N 51°00' E 002°11'0 0.0
2017-Aug-14 11:54N 51°00' E 002°11'0 0.0
2017-Aug-14 11:30N 51°00' E 002°11'0 0.0
2017-Aug-14 11:00N 51°00' E 002°11'0 0.0
2017-Aug-14 10:30N 51°00' E 002°11'0 0.0
2017-Aug-14 09:57N 51°00' E 002°11'0 0.0
2017-Aug-14 09:30N 51°00' E 002°11'0 0.0
2017-Aug-14 08:57N 51°00' E 002°11'0 0.0
2017-Aug-14 08:24N 51°00' E 002°11'0 0.0
2017-Aug-14 07:57N 51°00' E 002°11'0 0.0
2017-Aug-14 07:30N 51°00' E 002°11'0 0.0
2017-Aug-14 06:57N 51°00' E 002°11'0 0.0
2017-Aug-14 06:21N 51°00' E 002°11'0 0.0
2017-Aug-14 06:00N 51°00' E 002°11'0 0.0
2017-Aug-14 05:27N 51°00' E 002°11'0 0.0
2017-Aug-14 04:51N 51°00' E 002°11'0 0.0
2017-Aug-14 04:24N 51°00' E 002°11'0 0.0
2017-Aug-14 04:00N 51°00' E 002°11'0 0.0
2017-Aug-14 03:30N 51°00' E 002°11'0 0.0
2017-Aug-14 03:00N 51°00' E 002°11'0 0.0
2017-Aug-14 02:30N 51°00' E 002°11'0 0.0
2017-Aug-14 02:00N 51°00' E 002°11'0 0.0
2017-Aug-14 01:30N 51°00' E 002°11'0 0.0
2017-Aug-14 01:00N 51°00' E 002°11'0 0.0
2017-Aug-14 00:30N 51°00' E 002°11'0 0.0
2017-Aug-14 00:00N 51°00' E 002°11'0 0.0
2017-Aug-13 23:27N 51°00' E 002°11'0 0.0
2017-Aug-13 22:57N 51°00' E 002°11'0 0.0
2017-Aug-13 22:30N 51°00' E 002°11'0 0.0
2017-Aug-13 21:51N 51°00' E 002°11'0 0.0
2017-Aug-13 21:18N 51°00' E 002°11'0 0.0
2017-Aug-13 21:00N 51°00' E 002°11'0 0.0
2017-Aug-13 20:30N 51°00' E 002°11'0 0.0
2017-Aug-13 19:48N 51°00' E 002°11'0 0.0
2017-Aug-13 19:27N 51°00' E 002°11'0 0.0
2017-Aug-13 19:00N 51°00' E 002°11'0 0.0
2017-Aug-13 18:27N 51°00' E 002°11'0 0.0
2017-Aug-13 17:57N 51°00' E 002°11'0 0.0
2017-Aug-13 17:09N 51°00' E 002°11'0 0.0
2017-Aug-13 16:51N 51°00' E 002°11'0 0.0
2017-Aug-13 16:21N 51°00' E 002°11'0 0.0
2017-Aug-13 16:00N 51°00' E 002°11'0 0.0
2017-Aug-13 15:30N 51°00' E 002°11'0 0.0
2017-Aug-13 14:57N 51°00' E 002°11'0 0.0
2017-Aug-13 14:30N 51°00' E 002°11'0 0.0
2017-Aug-13 14:00N 51°00' E 002°11'0 0.0
2017-Aug-13 13:30N 51°00' E 002°11'0 0.0
2017-Aug-13 13:00N 51°00' E 002°11'0 0.0
2017-Aug-13 12:30N 51°00' E 002°11'0 0.0
2017-Aug-13 11:48N 51°00' E 002°11'0 0.0
2017-Aug-13 11:27N 51°00' E 002°11'0 0.0
2017-Aug-13 10:48N 51°00' E 002°11'0 0.0
2017-Aug-13 10:27N 51°00' E 002°11'0 0.0
2017-Aug-13 09:51N 51°00' E 002°11'0 0.0
2017-Aug-13 08:21N 51°00' E 002°11'0 0.0
2017-Aug-13 07:42N 51°00' E 002°11'0 0.0
2017-Aug-13 07:27N 51°00' E 002°11'0 0.0
2017-Aug-13 06:57N 51°00' E 002°11'0 0.0
2017-Aug-13 06:27N 51°00' E 002°11'0 0.0
2017-Aug-13 05:51N 51°00' E 002°11'0 0.0
2017-Aug-13 05:30N 51°00' E 002°11'0 0.0
2017-Aug-13 05:00N 51°00' E 002°11'0 0.0
2017-Aug-13 04:30N 51°00' E 002°11'0 0.0
2017-Aug-13 04:00N 51°00' E 002°11'0 0.0
2017-Aug-13 03:27N 51°00' E 002°11'0 0.0
2017-Aug-13 03:00N 51°00' E 002°11'0 0.0
2017-Aug-13 02:27N 51°00' E 002°11'0 0.0
2017-Aug-13 02:00N 51°00' E 002°11'0 0.0
2017-Aug-13 01:30N 51°00' E 002°11'0 0.0
2017-Aug-13 00:57N 51°00' E 002°11'0 0.0
2017-Aug-13 00:30N 51°00' E 002°11'0 0.0
2017-Aug-13 00:00N 51°00' E 002°11'0 0.0
2017-Aug-12 23:30N 51°00' E 002°11'0 0.0
2017-Aug-12 23:00N 51°00' E 002°11'0 0.0
2017-Aug-12 22:27N 51°00' E 002°11'0 0.0
2017-Aug-12 22:00N 51°00' E 002°11'0 0.0
2017-Aug-12 21:30N 51°00' E 002°11'0 0.0
2017-Aug-12 21:00N 51°00' E 002°11'0 0.0
2017-Aug-12 20:27N 51°00' E 002°11'0 0.0
2017-Aug-12 20:00N 51°00' E 002°11'0 0.0
2017-Aug-12 19:24N 51°00' E 002°11'0 0.0
2017-Aug-12 19:00N 51°00' E 002°11'0 0.0
2017-Aug-12 18:21N 51°00' E 002°11'0 0.0
2017-Aug-12 17:54N 51°00' E 002°11'0 0.0
2017-Aug-12 17:30N 51°00' E 002°11'0 0.0
2017-Aug-12 16:57N 51°00' E 002°11'0 0.0
2017-Aug-12 16:30N 51°00' E 002°11'0 0.0
2017-Aug-12 16:00N 51°00' E 002°11'0 0.0
2017-Aug-12 15:24N 51°00' E 002°11'0 0.0
2017-Aug-12 15:00N 51°00' E 002°11'0 0.0
2017-Aug-12 14:30N 51°00' E 002°11'0 0.0
2017-Aug-12 14:00N 51°00' E 002°11'0 0.0
2017-Aug-12 13:30N 51°00' E 002°11'0 0.0
2017-Aug-12 13:00N 51°00' E 002°11'0 0.0
2017-Aug-12 12:30N 51°00' E 002°11'0 0.0
2017-Aug-12 11:54N 51°00' E 002°11'0 0.0
2017-Aug-12 11:30N 51°00' E 002°11'0 0.0
2017-Aug-12 10:57N 51°00' E 002°11'0 0.0
2017-Aug-12 10:30N 51°00' E 002°11'0 0.0
2017-Aug-12 09:57N 51°00' E 002°11'0 0.0
2017-Aug-12 09:24N 51°00' E 002°11'0 0.0
2017-Aug-12 08:57N 51°00' E 002°11'0 0.0
2017-Aug-12 08:30N 51°00' E 002°11'0 0.0
2017-Aug-12 08:00N 51°00' E 002°11'0 0.0
2017-Aug-12 07:30N 51°00' E 002°11'0 0.0
2017-Aug-12 07:00N 51°00' E 002°11'0 0.0
2017-Aug-12 06:21N 51°00' E 002°11'0 0.0
2017-Aug-12 05:54N 51°00' E 002°11'0 0.0
2017-Aug-12 05:30N 51°00' E 002°11'0 0.0
2017-Aug-12 05:00N 51°00' E 002°11'0 0.0
2017-Aug-12 04:30N 51°00' E 002°11'0 0.0
2017-Aug-12 04:00N 51°00' E 002°11'0 0.0
2017-Aug-12 03:30N 51°00' E 002°11'0 0.0
2017-Aug-12 03:00N 51°00' E 002°11'0 0.0
2017-Aug-12 02:30N 51°00' E 002°11'0 0.0
2017-Aug-12 02:00N 51°00' E 002°11'0 0.0
2017-Aug-12 01:30N 51°00' E 002°11'0 0.0
2017-Aug-12 00:54N 51°00' E 002°11'0 0.0
2017-Aug-12 00:24N 51°00' E 002°11'0 0.0
2017-Aug-11 23:57N 51°00' E 002°11'0 0.0
2017-Aug-11 23:18N 51°00' E 002°11'0 0.0
2017-Aug-11 23:00N 51°00' E 002°11'0 0.0
2017-Aug-11 22:30N 51°00' E 002°11'0 0.0
2017-Aug-11 22:00N 51°00' E 002°11'0 0.0
2017-Aug-11 21:27N 51°00' E 002°11'0 0.0
2017-Aug-11 20:21N 51°00' E 002°11'0 0.0
2017-Aug-11 19:57N 51°00' E 002°11'0 0.0
2017-Aug-11 19:27N 51°00' E 002°11'0 0.0
2017-Aug-11 18:57N 51°00' E 002°11'0 0.0
2017-Aug-11 18:27N 51°00' E 002°11'0 0.0
2017-Aug-11 17:57N 51°00' E 002°11'0 0.0
2017-Aug-11 17:09N 51°00' E 002°11'0 0.0
2017-Aug-11 16:55N 51°00' E 002°11'0 0.0
2017-Aug-11 16:27N 51°00' E 002°11'0 0.0
2017-Aug-11 16:00N 51°00' E 002°11'0 0.0
2017-Aug-11 15:30N 51°00' E 002°11'0 0.0
2017-Aug-11 15:00N 51°00' E 002°11'0 0.0
2017-Aug-11 14:30N 51°00' E 002°11'0 0.0
2017-Aug-11 13:30N 51°00' E 002°11'0 0.0
2017-Aug-11 13:00N 51°00' E 002°11'0 0.0
2017-Aug-11 12:27N 51°00' E 002°11'0 0.0
2017-Aug-11 11:55N 51°00' E 002°11'0 0.0
2017-Aug-11 11:27N 51°00' E 002°11'0 0.0
2017-Aug-11 10:57N 51°00' E 002°11'0 0.0
2017-Aug-11 10:27N 51°00' E 002°11'0 0.0
2017-Aug-11 09:57N 51°00' E 002°11'0 0.0
2017-Aug-11 09:30N 51°00' E 002°11'0 0.0
2017-Aug-11 09:00N 51°00' E 002°11'0 0.0
2017-Aug-11 07:42N 51°00' E 002°11'0 0.0
2017-Aug-11 07:21N 51°00' E 002°11'0 0.0
2017-Aug-11 06:45N 51°00' E 002°11'0 0.0
2017-Aug-11 06:24N 51°00' E 002°11'0 0.0
2017-Aug-11 04:48N 51°00' E 002°11'0 0.0
2017-Aug-11 04:21N 51°00' E 002°11'0 0.0
2017-Aug-11 03:54N 51°00' E 002°11'0 0.0
2017-Aug-11 03:27N 51°00' E 002°11'0 0.0
2017-Aug-11 02:57N 51°00' E 002°11'0 0.0
2017-Aug-11 02:30N 51°00' E 002°11'0 0.0
2017-Aug-11 02:00N 51°00' E 002°11'0 0.0
2017-Aug-11 01:18N 51°00' E 002°11'0 0.0
2017-Aug-11 01:00N 51°00' E 002°11'0 0.0
2017-Aug-11 00:30N 51°00' E 002°11'0 0.0
2017-Aug-10 23:54N 51°00' E 002°11'0 0.0
2017-Aug-10 23:30N 51°00' E 002°11'0 0.0
2017-Aug-10 23:00N 51°00' E 002°11'0 0.0
2017-Aug-10 22:30N 51°00' E 002°11'0 0.0
2017-Aug-10 22:00N 51°00' E 002°11'0 0.0
2017-Aug-10 21:24N 51°00' E 002°11'0 0.0
2017-Aug-10 21:00N 51°00' E 002°11'0 0.0
2017-Aug-10 20:30N 51°00' E 002°11'0 0.0
2017-Aug-10 19:51N 51°00' E 002°11'0 0.0
2017-Aug-10 19:30N 51°00' E 002°11'0 0.0
2017-Aug-10 18:57N 51°00' E 002°11'0 0.0
2017-Aug-10 18:30N 51°00' E 002°11'1 2.4
2017-Aug-10 17:57N 51°02' E 002°10'410.0
2017-Aug-10 17:30N 51°03' E 002°03'712.4
2017-Aug-10 16:56N 51°03' E 001°52'2 4.8
2017-Aug-10 16:30N 51°04' E 001°49'2 3.6
2017-Aug-10 15:59N 51°05' E 001°52'0 0.0
2017-Aug-10 15:29N 51°05' E 001°52'0 0.0
2017-Aug-10 14:56N 51°05' E 001°52'0 0.0
2017-Aug-10 14:29N 51°05' E 001°52'0 0.0
2017-Aug-10 13:56N 51°05' E 001°52'0 0.0
2017-Aug-10 13:29N 51°05' E 001°52'0 0.0
2017-Aug-10 12:59N 51°05' E 001°52'0 0.0
2017-Aug-10 12:29N 51°05' E 001°52'0 0.3
2017-Aug-10 11:50N 51°05' E 001°52'0 0.2
2017-Aug-10 11:29N 51°05' E 001°52'0 0.1
2017-Aug-10 10:59N 51°05' E 001°52'0 0.1
2017-Aug-10 10:29N 51°05' E 001°52'0 0.0
2017-Aug-10 09:59N 51°05' E 001°52'0 0.0
2017-Aug-10 09:29N 51°05' E 001°52'0 0.0
2017-Aug-10 08:59N 51°05' E 001°52'0 0.0
2017-Aug-10 08:29N 51°05' E 001°52'0 0.0
2017-Aug-10 07:59N 51°05' E 001°52'0 0.0
2017-Aug-10 07:26N 51°05' E 001°52'0 0.0
2017-Aug-10 06:56N 51°05' E 001°52'0 0.0
2017-Aug-10 06:26N 51°05' E 001°52'0 0.1
2017-Aug-10 05:59N 51°05' E 001°52'0 0.0
2017-Aug-10 05:29N 51°05' E 001°52'0 0.0
2017-Aug-10 04:59N 51°05' E 001°52'0 0.3
2017-Aug-10 04:26N 51°05' E 001°52'0 0.1
2017-Aug-10 03:59N 51°05' E 001°52'0 0.1
2017-Aug-10 03:29N 51°05' E 001°52'0 0.8
2017-Aug-10 03:01N 51°05' E 001°53'4 8.2
2017-Aug-10 02:30N 51°03' E 001°46'813.5
2017-Aug-10 01:54N 50°58' E 001°36'614.1
2017-Aug-10 01:30N 50°54' E 001°30'10010.6
2017-Aug-09 16:09N 50°09' W 000°49'1 8.2
2017-Aug-09 15:58N 50°08' W 000°51'4 8.1
2017-Aug-09 15:30N 50°07' W 000°57'4 7.8
2017-Aug-09 15:01N 50°06' W 001°03'4 7.2
2017-Aug-09 14:30N 50°05' W 001°08'4 8.0
2017-Aug-09 14:00N 50°04' W 001°14'4 8.5
2017-Aug-09 13:30N 50°03' W 001°21'4 8.9
2017-Aug-09 13:00N 50°02' W 001°27'5 9.7
2017-Aug-09 12:31N 50°01' W 001°35'510.6
2017-Aug-09 12:00N 49°60' W 001°43'611.3
2017-Aug-09 11:31N 49°59' W 001°51'612.4
2017-Aug-09 11:01N 49°58' W 002°01'612.7
2017-Aug-09 10:30N 49°57' W 002°11'3612.8
2017-Aug-09 07:39N 49°48' W 003°06'212.6
2017-Aug-09 07:30N 49°48' W 003°08'713.9
2017-Aug-09 07:01N 49°49' W 003°19'612.1
2017-Aug-09 06:30N 49°49' W 003°28'612.2
2017-Aug-09 06:00N 49°49' W 003°38'611.6
2017-Aug-09 05:30N 49°50' W 003°47'1611.5
2017-Aug-09 04:08N 49°50' W 004°11'511.0
2017-Aug-09 03:39N 49°50' W 004°19'19910.0
2017-Aug-08 07:37N 51°06' W 009°09'111.4
2017-Aug-08 07:30N 51°07' W 009°11'611.8
2017-Aug-08 07:00N 51°09' W 009°19'611.6
2017-Aug-08 06:31N 51°12' W 009°28'612.7
2017-Aug-08 06:00N 51°14' W 009°37'611.2
2017-Aug-08 05:30N 51°17' W 009°45'611.6
2017-Aug-08 05:00N 51°20' W 009°53'611.2
2017-Aug-08 04:30N 51°24' W 009°60'611.4
2017-Aug-08 04:01N 51°27' W 010°07'611.3
2017-Aug-08 03:30N 51°30' W 010°15'611.4
2017-Aug-08 03:00N 51°33' W 010°22'50 8.3
2017-Aug-07 21:00N 52°22' W 010°12'  

Dump ship's entire track history